sensor_id;sensor_type;location;lat;lon;timestamp;pressure;altitude;pressure_sealevel;temperature;humidity
78123;BME280;67376;44.802;10.332;2023-12-20T00:02:16;101177.84;;;19.25;37.46
78123;BME280;67376;44.802;10.332;2023-12-20T00:04:41;101174.31;;;19.25;37.77
78123;BME280;67376;44.802;10.332;2023-12-20T00:07:06;101178.06;;;19.24;36.97
78123;BME280;67376;44.802;10.332;2023-12-20T00:09:32;101168.28;;;19.23;37.01
78123;BME280;67376;44.802;10.332;2023-12-20T00:11:57;101162.88;;;19.23;37.06
78123;BME280;67376;44.802;10.332;2023-12-20T00:14:22;101150.16;;;19.23;36.71
78123;BME280;67376;44.802;10.332;2023-12-20T00:16:47;101148.72;;;19.21;36.54
78123;BME280;67376;44.802;10.332;2023-12-20T00:19:13;101139.75;;;19.20;36.72
78123;BME280;67376;44.802;10.332;2023-12-20T00:21:38;101138.09;;;19.19;37.52
78123;BME280;67376;44.802;10.332;2023-12-20T00:24:03;101134.56;;;19.19;37.37
78123;BME280;67376;44.802;10.332;2023-12-20T00:26:29;101140.19;;;19.17;37.53
78123;BME280;67376;44.802;10.332;2023-12-20T00:28:54;101139.16;;;19.18;37.30
78123;BME280;67376;44.802;10.332;2023-12-20T00:31:19;101137.50;;;19.17;36.69
78123;BME280;67376;44.802;10.332;2023-12-20T00:33:45;101132.91;;;19.18;36.47
78123;BME280;67376;44.802;10.332;2023-12-20T00:36:12;101132.31;;;19.16;36.49
78123;BME280;67376;44.802;10.332;2023-12-20T00:38:37;101127.72;;;19.16;36.63
78123;BME280;67376;44.802;10.332;2023-12-20T00:41:02;101126.88;;;19.16;37.29
78123;BME280;67376;44.802;10.332;2023-12-20T00:43:28;101117.09;;;19.14;37.19
78123;BME280;67376;44.802;10.332;2023-12-20T00:45:53;101117.09;;;19.14;36.27
78123;BME280;67376;44.802;10.332;2023-12-20T00:48:18;101110.03;;;19.13;36.48
78123;BME280;67376;44.802;10.332;2023-12-20T00:50:44;101107.53;;;19.12;36.17
78123;BME280;67376;44.802;10.332;2023-12-20T00:53:09;101100.47;;;19.11;37.17
78123;BME280;67376;44.802;10.332;2023-12-20T00:55:34;101095.28;;;19.09;36.13
78123;BME280;67376;44.802;10.332;2023-12-20T00:57:59;101088.22;;;19.08;37.22
78123;BME280;67376;44.802;10.332;2023-12-20T01:00:25;101089.88;;;19.09;36.24
78123;BME280;67376;44.802;10.332;2023-12-20T01:02:50;101081.13;;;19.07;36.56
78123;BME280;67376;44.802;10.332;2023-12-20T01:05:16;101084.66;;;19.08;37.02
78123;BME280;67376;44.802;10.332;2023-12-20T01:07:42;101072.19;;;19.07;37.27
78123;BME280;67376;44.802;10.332;2023-12-20T01:10:08;101067.03;;;19.05;36.12
78123;BME280;67376;44.802;10.332;2023-12-20T01:12:33;101073.50;;;19.04;36.98
78123;BME280;67376;44.802;10.332;2023-12-20T01:14:58;101074.31;;;19.05;36.91
78123;BME280;67376;44.802;10.332;2023-12-20T01:17:24;101077.03;;;19.05;35.90
78123;BME280;67376;44.802;10.332;2023-12-20T01:19:49;101079.94;;;19.03;36.23
78123;BME280;67376;44.802;10.332;2023-12-20T01:22:14;101071.81;;;19.03;36.07
78123;BME280;67376;44.802;10.332;2023-12-20T01:24:39;101073.72;;;19.03;36.16
78123;BME280;67376;44.802;10.332;2023-12-20T01:27:05;101067.69;;;19.01;36.43
78123;BME280;67376;44.802;10.332;2023-12-20T01:29:30;101066.84;;;19.00;36.75
78123;BME280;67376;44.802;10.332;2023-12-20T01:31:55;101063.31;;;19.00;36.06
78123;BME280;67376;44.802;10.332;2023-12-20T01:34:20;101054.59;;;18.98;36.29
78123;BME280;67376;44.802;10.332;2023-12-20T01:36:46;101057.28;;;18.98;36.03
78123;BME280;67376;44.802;10.332;2023-12-20T01:39:11;101049.19;;;18.98;35.85
78123;BME280;67376;44.802;10.332;2023-12-20T01:41:36;101048.78;;;18.94;36.37
78123;BME280;67376;44.802;10.332;2023-12-20T01:44:01;101045.66;;;18.97;35.87
78123;BME280;67376;44.802;10.332;2023-12-20T01:46:27;101039.63;;;18.95;35.86
78123;BME280;67376;44.802;10.332;2023-12-20T01:48:52;101036.91;;;18.95;35.69
78123;BME280;67376;44.802;10.332;2023-12-20T01:51:18;101035.25;;;18.94;35.66
78123;BME280;67376;44.802;10.332;2023-12-20T01:53:44;101036.31;;;18.93;36.12
78123;BME280;67376;44.802;10.332;2023-12-20T01:56:09;101037.13;;;18.94;35.94
78123;BME280;67376;44.802;10.332;2023-12-20T01:58:36;101027.34;;;18.93;35.68
78123;BME280;67376;44.802;10.332;2023-12-20T02:01:04;101023.00;;;18.92;35.96
78123;BME280;67376;44.802;10.332;2023-12-20T02:03:29;101019.69;;;18.90;35.99
78123;BME280;67376;44.802;10.332;2023-12-20T02:05:54;101019.06;;;18.88;36.00
78123;BME280;67376;44.802;10.332;2023-12-20T02:08:20;101028.22;;;18.87;35.71
78123;BME280;67376;44.802;10.332;2023-12-20T02:10:45;101028.00;;;18.88;36.61
78123;BME280;67376;44.802;10.332;2023-12-20T02:13:10;101025.53;;;18.87;35.69
78123;BME280;67376;44.802;10.332;2023-12-20T02:15:35;101015.53;;;18.87;35.82
78123;BME280;67376;44.802;10.332;2023-12-20T02:18:04;101012.00;;;18.87;36.11
78123;BME280;67376;44.802;10.332;2023-12-20T02:20:29;101001.41;;;18.85;36.46
78123;BME280;67376;44.802;10.332;2023-12-20T02:22:55;101001.63;;;18.84;36.43
78123;BME280;67376;44.802;10.332;2023-12-20T02:25:20;101007.03;;;18.84;36.66
78123;BME280;67376;44.802;10.332;2023-12-20T02:27:45;101017.84;;;18.84;36.10
78123;BME280;67376;44.802;10.332;2023-12-20T02:30:11;101025.97;;;18.84;35.64
78123;BME280;67376;44.802;10.332;2023-12-20T02:32:37;101011.59;;;18.83;36.18
78123;BME280;67376;44.802;10.332;2023-12-20T02:35:02;101028.06;;;18.82;35.79
78123;BME280;67376;44.802;10.332;2023-12-20T02:37:27;101026.41;;;18.80;36.45
78123;BME280;67376;44.802;10.332;2023-12-20T02:39:52;101019.53;;;18.78;35.57
78123;BME280;67376;44.802;10.332;2023-12-20T02:42:18;101030.59;;;18.76;35.84
78123;BME280;67376;44.802;10.332;2023-12-20T02:44:43;101027.66;;;18.78;36.41
78123;BME280;67376;44.802;10.332;2023-12-20T02:47:09;101023.31;;;18.77;35.74
78123;BME280;67376;44.802;10.332;2023-12-20T02:49:34;101022.47;;;18.76;36.24
78123;BME280;67376;44.802;10.332;2023-12-20T02:51:59;101016.22;;;18.76;35.83
78123;BME280;67376;44.802;10.332;2023-12-20T02:54:25;101014.56;;;18.75;36.51
78123;BME280;67376;44.802;10.332;2023-12-20T02:56:50;101015.63;;;18.74;36.42
78123;BME280;67376;44.802;10.332;2023-12-20T02:59:15;101002.94;;;18.74;36.53
78123;BME280;67376;44.802;10.332;2023-12-20T03:01:44;101006.91;;;18.72;36.56
78123;BME280;67376;44.802;10.332;2023-12-20T03:04:09;100990.66;;;18.72;35.45
78123;BME280;67376;44.802;10.332;2023-12-20T03:06:34;100985.25;;;18.72;35.66
78123;BME280;67376;44.802;10.332;2023-12-20T03:09:00;100981.72;;;18.71;35.54
78123;BME280;67376;44.802;10.332;2023-12-20T03:11:28;100978.41;;;18.69;36.20
78123;BME280;67376;44.802;10.332;2023-12-20T03:13:54;100974.88;;;18.69;36.39
78123;BME280;67376;44.802;10.332;2023-12-20T03:16:19;100979.47;;;18.68;35.31
78123;BME280;67376;44.802;10.332;2023-12-20T03:18:44;100967.59;;;18.69;35.51
78123;BME280;67376;44.802;10.332;2023-12-20T03:21:09;100964.06;;;18.69;35.54
78123;BME280;67376;44.802;10.332;2023-12-20T03:23:35;100957.00;;;18.68;35.77
78123;BME280;67376;44.802;10.332;2023-12-20T03:26:00;100948.28;;;18.66;35.51
78123;BME280;67376;44.802;10.332;2023-12-20T03:28:29;100946.63;;;18.65;36.24
78123;BME280;67376;44.802;10.332;2023-12-20T03:30:54;100934.97;;;18.64;35.22
78123;BME280;67376;44.802;10.332;2023-12-20T03:33:19;100932.25;;;18.64;36.24
78123;BME280;67376;44.802;10.332;2023-12-20T03:35:45;100936.00;;;18.63;36.26
78123;BME280;67376;44.802;10.332;2023-12-20T03:38:10;100930.59;;;18.63;35.94
78123;BME280;67376;44.802;10.332;2023-12-20T03:40:36;100941.19;;;18.65;35.83
78123;BME280;67376;44.802;10.332;2023-12-20T03:43:01;100931.44;;;18.64;35.49
78123;BME280;67376;44.802;10.332;2023-12-20T03:45:26;100928.13;;;18.62;36.21
78123;BME280;67376;44.802;10.332;2023-12-20T03:47:51;100923.75;;;18.61;35.37
78123;BME280;67376;44.802;10.332;2023-12-20T03:50:24;100923.94;;;18.59;35.78
78123;BME280;67376;44.802;10.332;2023-12-20T03:52:49;100926.66;;;18.59;35.03
78123;BME280;67376;44.802;10.332;2023-12-20T03:55:15;100929.34;;;18.59;36.13
78123;BME280;67376;44.802;10.332;2023-12-20T03:57:40;100933.09;;;18.58;35.87
78123;BME280;67376;44.802;10.332;2023-12-20T04:00:07;100926.25;;;18.56;36.02
78123;BME280;67376;44.802;10.332;2023-12-20T04:02:35;100915.22;;;18.57;35.96
78123;BME280;67376;44.802;10.332;2023-12-20T04:05:01;100912.75;;;18.56;35.30
78123;BME280;67376;44.802;10.332;2023-12-20T04:07:26;100910.25;;;18.54;36.07
78123;BME280;67376;44.802;10.332;2023-12-20T04:09:51;100922.13;;;18.53;35.73
78123;BME280;67376;44.802;10.332;2023-12-20T04:12:16;100922.94;;;18.54;35.52
78123;BME280;67376;44.802;10.332;2023-12-20T04:14:42;100912.13;;;18.54;35.45
78123;BME280;67376;44.802;10.332;2023-12-20T04:17:07;100916.72;;;18.53;35.30
78123;BME280;67376;44.802;10.332;2023-12-20T04:19:32;100912.13;;;18.54;36.15
78123;BME280;67376;44.802;10.332;2023-12-20T04:21:57;100917.75;;;18.52;35.59
78123;BME280;67376;44.802;10.332;2023-12-20T04:24:23;100909.03;;;18.50;36.01
78123;BME280;67376;44.802;10.332;2023-12-20T04:26:48;100904.66;;;18.49;35.96
78123;BME280;67376;44.802;10.332;2023-12-20T04:29:13;100900.34;;;18.48;35.85
78123;BME280;67376;44.802;10.332;2023-12-20T04:31:38;100902.44;;;18.46;35.84
78123;BME280;67376;44.802;10.332;2023-12-20T04:34:04;100905.75;;;18.48;35.95
78123;BME280;67376;44.802;10.332;2023-12-20T04:36:29;100891.41;;;18.47;35.14
78123;BME280;67376;44.802;10.332;2023-12-20T04:38:55;100896.81;;;18.47;35.08
78123;BME280;67376;44.802;10.332;2023-12-20T04:41:20;100895.16;;;18.46;35.09
78123;BME280;67376;44.802;10.332;2023-12-20T04:43:45;100892.44;;;18.46;35.88
78123;BME280;67376;44.802;10.332;2023-12-20T04:46:11;100885.38;;;18.45;36.03
78123;BME280;67376;44.802;10.332;2023-12-20T04:48:36;100884.56;;;18.45;35.72
78123;BME280;67376;44.802;10.332;2023-12-20T04:51:01;100875.63;;;18.44;35.54
78123;BME280;67376;44.802;10.332;2023-12-20T04:53:27;100872.09;;;18.44;35.58
78123;BME280;67376;44.802;10.332;2023-12-20T04:55:52;100871.03;;;18.45;35.03
78123;BME280;67376;44.802;10.332;2023-12-20T04:58:18;100873.97;;;18.43;36.00
78123;BME280;67376;44.802;10.332;2023-12-20T05:00:43;100877.72;;;18.42;35.49
78123;BME280;67376;44.802;10.332;2023-12-20T05:03:09;100872.31;;;18.42;35.64
78123;BME280;67376;44.802;10.332;2023-12-20T05:05:34;100885.81;;;18.42;35.96
78123;BME280;67376;44.802;10.332;2023-12-20T05:08:00;100893.31;;;18.40;35.97
78123;BME280;67376;44.802;10.332;2023-12-20T05:10:25;100894.16;;;18.41;35.48
78123;BME280;67376;44.802;10.332;2023-12-20T05:12:52;100891.44;;;18.41;36.22
78123;BME280;67376;44.802;10.332;2023-12-20T05:15:17;100885.22;;;18.40;35.34
78123;BME280;67376;44.802;10.332;2023-12-20T05:17:42;100886.25;;;18.39;35.49
78123;BME280;67376;44.802;10.332;2023-12-20T05:20:08;100870.88;;;18.40;36.22
78123;BME280;67376;44.802;10.332;2023-12-20T05:22:33;100860.28;;;18.38;36.12
78123;BME280;67376;44.802;10.332;2023-12-20T05:24:58;100856.75;;;18.38;35.77
78123;BME280;67376;44.802;10.332;2023-12-20T05:27:23;100841.78;;;18.35;36.40
78123;BME280;67376;44.802;10.332;2023-12-20T05:29:49;100856.34;;;18.34;36.08
78123;BME280;67376;44.802;10.332;2023-12-20T05:32:15;100861.75;;;18.34;36.70
78123;BME280;67376;44.802;10.332;2023-12-20T05:34:40;100865.28;;;18.35;37.00
78123;BME280;67376;44.802;10.332;2023-12-20T05:37:05;100870.69;;;18.35;37.28
78123;BME280;67376;44.802;10.332;2023-12-20T05:39:30;100873.63;;;18.33;37.20
78123;BME280;67376;44.802;10.332;2023-12-20T05:41:56;100878.81;;;18.35;37.44
78123;BME280;67376;44.802;10.332;2023-12-20T05:44:21;100873.63;;;18.33;37.49
78123;BME280;67376;44.802;10.332;2023-12-20T05:46:46;100873.41;;;18.35;36.93
78123;BME280;67376;44.802;10.332;2023-12-20T05:49:12;100865.28;;;18.35;36.79
78123;BME280;67376;44.802;10.332;2023-12-20T05:51:38;100859.44;;;18.38;36.89
78123;BME280;67376;44.802;10.332;2023-12-20T05:54:03;100867.56;;;18.38;37.73
78123;BME280;67376;44.802;10.332;2023-12-20T05:56:29;100852.56;;;18.42;37.41
78123;BME280;67376;44.802;10.332;2023-12-20T05:58:54;100848.19;;;18.41;37.07
78123;BME280;67376;44.802;10.332;2023-12-20T06:01:19;100852.56;;;18.42;38.19
78123;BME280;67376;44.802;10.332;2023-12-20T06:03:44;100858.78;;;18.42;38.27
78123;BME280;67376;44.802;10.332;2023-12-20T06:06:11;100862.31;;;18.43;38.25
78123;BME280;67376;44.802;10.332;2023-12-20T06:08:37;100858.34;;;18.45;38.49
78123;BME280;67376;44.802;10.332;2023-12-20T06:11:03;100861.88;;;18.46;37.59
78123;BME280;67376;44.802;10.332;2023-12-20T06:13:28;100858.78;;;18.42;38.50
78123;BME280;67376;44.802;10.332;2023-12-20T06:15:54;100850.25;;;18.45;37.84
78123;BME280;67376;44.802;10.332;2023-12-20T06:18:19;100849.19;;;18.46;38.31
78123;BME280;67376;44.802;10.332;2023-12-20T06:20:45;100857.09;;;18.48;38.42
78123;BME280;67376;44.802;10.332;2023-12-20T06:23:10;100848.97;;;18.48;37.76
78123;BME280;67376;44.802;10.332;2023-12-20T06:25:35;100845.81;;;18.51;38.12
78123;BME280;67376;44.802;10.332;2023-12-20T06:28:00;100827.47;;;18.53;38.00
78123;BME280;67376;44.802;10.332;2023-12-20T06:30:26;100828.75;;;18.51;38.02
78123;BME280;67376;44.802;10.332;2023-12-20T06:32:52;100834.75;;;18.53;37.69
78123;BME280;67376;44.802;10.332;2023-12-20T06:35:17;100829.34;;;18.53;37.97
78123;BME280;67376;44.802;10.332;2023-12-20T06:37:43;100833.50;;;18.55;37.75
78123;BME280;67376;44.802;10.332;2023-12-20T06:40:09;100838.06;;;18.55;37.23
78123;BME280;67376;44.802;10.332;2023-12-20T06:42:34;100828.91;;;18.56;37.42
78123;BME280;67376;44.802;10.332;2023-12-20T06:45:00;100824.13;;;18.58;37.28
78123;BME280;67376;44.802;10.332;2023-12-20T06:47:25;100823.91;;;18.59;37.05
78123;BME280;67376;44.802;10.332;2023-12-20T06:49:51;100835.91;;;18.45;34.24
78123;BME280;67376;44.802;10.332;2023-12-20T06:52:16;100836.56;;;18.09;33.13
78123;BME280;67376;44.802;10.332;2023-12-20T06:54:42;100833.31;;;17.56;32.94
78123;BME280;67376;44.802;10.332;2023-12-20T06:57:07;100836.94;;;17.36;33.54
78123;BME280;67376;44.802;10.332;2023-12-20T06:59:32;100843.34;;;17.42;33.76
78123;BME280;67376;44.802;10.332;2023-12-20T07:01:58;100852.22;;;17.56;34.45
78123;BME280;67376;44.802;10.332;2023-12-20T07:04:23;100842.22;;;17.69;34.59
78123;BME280;67376;44.802;10.332;2023-12-20T07:06:48;100836.75;;;17.83;34.74
78123;BME280;67376;44.802;10.332;2023-12-20T07:09:17;100848.09;;;17.91;35.18
78123;BME280;67376;44.802;10.332;2023-12-20T07:11:42;100860.94;;;18.02;35.13
78123;BME280;67376;44.802;10.332;2023-12-20T07:14:07;100873.97;;;18.12;34.54
78123;BME280;67376;44.802;10.332;2023-12-20T07:16:33;100865.81;;;18.19;34.94
78123;BME280;67376;44.802;10.332;2023-12-20T07:19:00;100874.94;;;18.24;34.97
78123;BME280;67376;44.802;10.332;2023-12-20T07:21:25;100876.16;;;18.28;34.72
78123;BME280;67376;44.802;10.332;2023-12-20T07:23:51;100875.50;;;18.33;34.77
78123;BME280;67376;44.802;10.332;2023-12-20T07:26:17;100871.31;;;18.37;34.78
78123;BME280;67376;44.802;10.332;2023-12-20T07:28:42;100875.22;;;18.41;33.75
78123;BME280;67376;44.802;10.332;2023-12-20T07:31:07;100868.56;;;18.43;34.37
78123;BME280;67376;44.802;10.332;2023-12-20T07:33:33;100870.00;;;18.46;34.68
78123;BME280;67376;44.802;10.332;2023-12-20T07:35:59;100872.47;;;18.47;33.88
78123;BME280;67376;44.802;10.332;2023-12-20T07:38:24;100882.00;;;18.50;33.95
78123;BME280;67376;44.802;10.332;2023-12-20T07:40:49;100885.31;;;18.52;34.87
78123;BME280;67376;44.802;10.332;2023-12-20T07:43:15;100878.63;;;18.55;34.47
78123;BME280;67376;44.802;10.332;2023-12-20T07:45:40;100883.59;;;18.58;34.00
78123;BME280;67376;44.802;10.332;2023-12-20T07:48:06;100872.56;;;18.59;34.78
78123;BME280;67376;44.802;10.332;2023-12-20T07:50:31;100888.59;;;18.61;34.80
78123;BME280;67376;44.802;10.332;2023-12-20T07:52:57;100885.91;;;18.61;34.91
78123;BME280;67376;44.802;10.332;2023-12-20T07:55:24;100886.72;;;18.61;34.07
78123;BME280;67376;44.802;10.332;2023-12-20T07:57:49;100886.28;;;18.64;34.10
78123;BME280;67376;44.802;10.332;2023-12-20T08:00:15;100881.50;;;18.66;34.10
78123;BME280;67376;44.802;10.332;2023-12-20T08:02:40;100884.19;;;18.66;34.26
78123;BME280;67376;44.802;10.332;2023-12-20T08:05:06;100895.84;;;18.67;34.45
78123;BME280;67376;44.802;10.332;2023-12-20T08:07:31;100901.84;;;18.69;33.82
78123;BME280;67376;44.802;10.332;2023-12-20T08:09:56;100906.44;;;18.68;34.33
78123;BME280;67376;44.802;10.332;2023-12-20T08:12:22;100906.44;;;18.68;33.95
78123;BME280;67376;44.802;10.332;2023-12-20T08:14:47;100897.06;;;18.71;34.69
78123;BME280;67376;44.802;10.332;2023-12-20T08:17:12;100895.19;;;18.71;34.66
78123;BME280;67376;44.802;10.332;2023-12-20T08:19:38;100898.72;;;18.72;34.51
78123;BME280;67376;44.802;10.332;2023-12-20T08:22:03;100894.13;;;18.72;34.26
78123;BME280;67376;44.802;10.332;2023-12-20T08:24:29;100891.19;;;18.74;33.84
78123;BME280;67376;44.802;10.332;2023-12-20T08:26:54;100891.19;;;18.74;33.96
78123;BME280;67376;44.802;10.332;2023-12-20T08:29:20;100896.38;;;18.75;34.75
78123;BME280;67376;44.802;10.332;2023-12-20T08:31:46;100896.63;;;18.74;34.59
78123;BME280;67376;44.802;10.332;2023-12-20T08:34:11;100891.81;;;18.76;34.63
78123;BME280;67376;44.802;10.332;2023-12-20T08:36:39;100890.53;;;18.78;33.92
78123;BME280;67376;44.802;10.332;2023-12-20T08:39:04;100895.13;;;18.78;34.81
78123;BME280;67376;44.802;10.332;2023-12-20T08:41:32;100902.19;;;18.79;34.66
78123;BME280;67376;44.802;10.332;2023-12-20T08:43:57;100919.25;;;18.79;34.58
78123;BME280;67376;44.802;10.332;2023-12-20T08:46:23;100919.03;;;18.81;34.70
78123;BME280;67376;44.802;10.332;2023-12-20T08:48:48;100921.94;;;18.79;34.04
78123;BME280;67376;44.802;10.332;2023-12-20T08:51:13;100922.78;;;18.80;33.92
78123;BME280;67376;44.802;10.332;2023-12-20T08:53:38;100916.53;;;18.79;33.80
78123;BME280;67376;44.802;10.332;2023-12-20T08:56:04;100910.09;;;18.80;34.77
78123;BME280;67376;44.802;10.332;2023-12-20T08:58:29;100903.63;;;18.82;33.97
78123;BME280;67376;44.802;10.332;2023-12-20T09:00:54;100903.00;;;18.79;34.04
78123;BME280;67376;44.802;10.332;2023-12-20T09:03:20;100893.03;;;18.80;34.72
78123;BME280;67376;44.802;10.332;2023-12-20T09:05:45;100893.84;;;18.80;33.64
78123;BME280;67376;44.802;10.332;2023-12-20T09:08:10;100903.63;;;18.82;34.05
78123;BME280;67376;44.802;10.332;2023-12-20T09:10:37;100895.50;;;18.82;33.73
78123;BME280;67376;44.802;10.332;2023-12-20T09:13:02;100888.22;;;18.82;34.07
78123;BME280;67376;44.802;10.332;2023-12-20T09:15:27;100892.81;;;18.82;33.98
78123;BME280;67376;44.802;10.332;2023-12-20T09:17:54;100883.63;;;18.83;33.94
78123;BME280;67376;44.802;10.332;2023-12-20T09:20:19;100875.53;;;18.83;33.71
78123;BME280;67376;44.802;10.332;2023-12-20T09:22:44;100872.22;;;18.80;34.42
78123;BME280;67376;44.802;10.332;2023-12-20T09:25:10;100872.22;;;18.80;33.91
78123;BME280;67376;44.802;10.332;2023-12-20T09:27:36;100873.88;;;18.82;34.28
78123;BME280;67376;44.802;10.332;2023-12-20T09:30:01;100875.53;;;18.83;33.78
78123;BME280;67376;44.802;10.332;2023-12-20T09:32:26;100866.81;;;18.80;34.30
78123;BME280;67376;44.802;10.332;2023-12-20T09:34:52;100872.00;;;18.82;34.19
78123;BME280;67376;44.802;10.332;2023-12-20T09:37:17;100863.88;;;18.82;34.42
78123;BME280;67376;44.802;10.332;2023-12-20T09:39:42;100861.16;;;18.82;34.75
78123;BME280;67376;44.802;10.332;2023-12-20T09:42:08;100852.22;;;18.82;33.96
78123;BME280;67376;44.802;10.332;2023-12-20T09:44:35;100851.41;;;18.81;33.91
78123;BME280;67376;44.802;10.332;2023-12-20T09:47:04;100847.88;;;18.80;34.83
78123;BME280;67376;44.802;10.332;2023-12-20T09:49:29;100840.81;;;18.79;33.98
78123;BME280;67376;44.802;10.332;2023-12-20T09:51:55;100848.91;;;18.79;33.94
78123;BME280;67376;44.802;10.332;2023-12-20T09:54:21;100847.03;;;18.80;33.71
78123;BME280;67376;44.802;10.332;2023-12-20T09:56:47;100839.97;;;18.79;34.87
78123;BME280;67376;44.802;10.332;2023-12-20T09:59:13;100839.97;;;18.79;33.74
78123;BME280;67376;44.802;10.332;2023-12-20T10:01:39;100837.06;;;18.80;33.82
78123;BME280;67376;44.802;10.332;2023-12-20T10:04:05;100834.34;;;18.80;34.05
78123;BME280;67376;44.802;10.332;2023-12-20T10:06:34;100830.59;;;18.82;33.98
78123;BME280;67376;44.802;10.332;2023-12-20T10:08:59;100829.53;;;18.83;34.42
78123;BME280;67376;44.802;10.332;2023-12-20T10:11:24;100825.41;;;18.80;33.86
78123;BME280;67376;44.802;10.332;2023-12-20T10:13:50;100826.00;;;18.82;34.33
78123;BME280;67376;44.802;10.332;2023-12-20T10:16:15;100823.31;;;18.82;34.64
78123;BME280;67376;44.802;10.332;2023-12-20T10:18:41;100823.31;;;18.82;34.77
78123;BME280;67376;44.802;10.332;2023-12-20T10:21:06;100817.91;;;18.82;34.25
78123;BME280;67376;44.802;10.332;2023-12-20T10:23:34;100823.31;;;18.82;33.92
78123;BME280;67376;44.802;10.332;2023-12-20T10:26:00;100809.78;;;18.82;34.73
78123;BME280;67376;44.802;10.332;2023-12-20T10:28:25;100802.94;;;18.79;34.31
78123;BME280;67376;44.802;10.332;2023-12-20T10:30:54;100802.72;;;18.81;34.22
78123;BME280;67376;44.802;10.332;2023-12-20T10:33:24;100806.03;;;18.83;33.83
78123;BME280;67376;44.802;10.332;2023-12-20T10:35:50;100794.59;;;18.81;33.89
78123;BME280;67376;44.802;10.332;2023-12-20T10:38:17;100789.19;;;18.81;33.58
78123;BME280;67376;44.802;10.332;2023-12-20T10:40:42;100790.00;;;18.82;34.33
78123;BME280;67376;44.802;10.332;2023-12-20T10:43:08;100787.09;;;18.83;34.52
78123;BME280;67376;44.802;10.332;2023-12-20T10:45:33;100793.31;;;18.84;34.01
78123;BME280;67376;44.802;10.332;2023-12-20T10:47:59;100789.78;;;18.83;34.62
78123;BME280;67376;44.802;10.332;2023-12-20T10:50:25;100789.78;;;18.83;34.57
78123;BME280;67376;44.802;10.332;2023-12-20T10:52:51;100784.38;;;18.83;34.35
78123;BME280;67376;44.802;10.332;2023-12-20T10:55:20;100786.03;;;18.84;33.86
78123;BME280;67376;44.802;10.332;2023-12-20T10:57:46;100782.50;;;18.84;33.87
78123;BME280;67376;44.802;10.332;2023-12-20T11:00:15;100774.16;;;18.85;34.51
78123;BME280;67376;44.802;10.332;2023-12-20T11:02:42;100782.28;;;18.85;34.55
78123;BME280;67376;44.802;10.332;2023-12-20T11:07:48;100786.03;;;18.84;33.81
78123;BME280;67376;44.802;10.332;2023-12-20T11:10:23;100782.06;;;18.87;33.91
78123;BME280;67376;44.802;10.332;2023-12-20T11:15:15;100767.94;;;18.85;33.80
78123;BME280;67376;44.802;10.332;2023-12-20T11:17:41;100772.88;;;18.88;33.51
78123;BME280;67376;44.802;10.332;2023-12-20T11:20:09;100765.59;;;18.88;34.02
78123;BME280;67376;44.802;10.332;2023-12-20T11:22:36;100763.72;;;18.89;34.52
78123;BME280;67376;44.802;10.332;2023-12-20T11:25:06;100756.66;;;18.88;33.97
78123;BME280;67376;44.802;10.332;2023-12-20T11:27:33;100759.13;;;18.89;34.46
78123;BME280;67376;44.802;10.332;2023-12-20T11:29:58;100756.66;;;18.88;33.76
78123;BME280;67376;44.802;10.332;2023-12-20T11:35:00;100752.44;;;18.92;33.86
78123;BME280;67376;44.802;10.332;2023-12-20T11:37:30;100760.78;;;18.90;33.91
78123;BME280;67376;44.802;10.332;2023-12-20T11:40:01;100767.63;;;18.93;33.87
78123;BME280;67376;44.802;10.332;2023-12-20T11:42:27;100764.94;;;18.93;34.16
78123;BME280;67376;44.802;10.332;2023-12-20T11:44:53;100758.69;;;18.92;33.93
78123;BME280;67376;44.802;10.332;2023-12-20T11:47:18;100750.56;;;18.92;34.73
78123;BME280;67376;44.802;10.332;2023-12-20T11:49:44;100755.16;;;18.92;33.89
78123;BME280;67376;44.802;10.332;2023-12-20T11:52:12;100753.28;;;18.92;33.87
78123;BME280;67376;44.802;10.332;2023-12-20T11:54:37;100754.09;;;18.93;34.17
78123;BME280;67376;44.802;10.332;2023-12-20T11:57:03;100766.59;;;18.94;34.29
78123;BME280;67376;44.802;10.332;2023-12-20T11:59:28;100763.88;;;18.94;33.82
78123;BME280;67376;44.802;10.332;2023-12-20T12:01:53;100743.28;;;18.93;33.69
78123;BME280;67376;44.802;10.332;2023-12-20T12:04:21;100749.28;;;18.95;34.75
78123;BME280;67376;44.802;10.332;2023-12-20T12:06:46;100744.94;;;18.94;33.57
78123;BME280;67376;44.802;10.332;2023-12-20T12:09:12;100734.94;;;18.94;34.29
78123;BME280;67376;44.802;10.332;2023-12-20T12:11:37;100733.88;;;18.95;33.84
78123;BME280;67376;44.802;10.332;2023-12-20T12:14:02;100738.47;;;18.95;34.16
78123;BME280;67376;44.802;10.332;2023-12-20T12:16:28;100740.34;;;18.94;33.72
78123;BME280;67376;44.802;10.332;2023-12-20T12:18:57;100736.59;;;18.95;34.34
78123;BME280;67376;44.802;10.332;2023-12-20T12:21:23;100732.00;;;18.96;33.91
78123;BME280;67376;44.802;10.332;2023-12-20T12:23:48;100732.00;;;18.96;33.91
78123;BME280;67376;44.802;10.332;2023-12-20T12:26:13;100740.50;;;18.99;33.90
78123;BME280;67376;44.802;10.332;2023-12-20T12:28:41;100742.38;;;18.99;34.49
78123;BME280;67376;44.802;10.332;2023-12-20T12:31:07;100736.97;;;18.99;34.76
78123;BME280;67376;44.802;10.332;2023-12-20T12:33:33;100735.31;;;18.98;34.33
78123;BME280;67376;44.802;10.332;2023-12-20T12:35:59;100725.91;;;19.00;34.48
78123;BME280;67376;44.802;10.332;2023-12-20T12:38:24;100717.81;;;19.00;33.62
78123;BME280;67376;44.802;10.332;2023-12-20T12:40:50;100709.91;;;18.99;33.80